Aeroporto :
LOGIN :

Iscrizione | Disclaimer

   EN    FR    IT 

 










Sommario :    VFR   VFR Marginale   IFR   IFR Intensivo   IFR Molto Intensivo
Visibilità : 
Base nubi : 
>= 8 km
>= 3000ft
5 / 8 km
1000 / 3000 ft
1500m / 5 km
500 / 1000 ft
800 / 1500m
200 / 500 ft
< 800m
< 200 ft
Simboli :   Temporali  Nebbia  Neve Forte  Precipitazioni Forti  Vento > 20 kt
SIGMETs :   Varie  Temporali  Ghiacco  Turbolenza  Onda orograficha  Ceneri Vulcaniche






- Altitudine del aeroporto : 74 ft
- Codice IATA : EIN


EHEH - Eindhoven

ULTIMO METAR :
  • 231525Z AUTO 27009KT 230V310 9999 FEW039 SCT044 OVC096 19/09 Q1015 BLU TEMPO 4500 -SHRA SCT020CB BKN025

METARs OBSOLETI :
  • 231455Z AUTO 25006KT 200V320 9999 BKN037 BKN043 BKN050 21/12 Q1015 BLU TEMPO 4500 -SHRA SCT020CB BKN025
  • 231425Z AUTO 26007KT 9999 SCT036 SCT043 BKN094 21/11 Q1014 BLU TEMPO 4500 -SHRA SCT020CB BKN025
  • 231355Z AUTO 24011KT 190V290 9999 OVC094 21/12 Q1014 BLU TEMPO 4500 -SHRA SCT020CB BKN025
  • 231325Z AUTO 25010KT 190V300 9999 OVC091 19/12 Q1015 BLU TEMPO 4500 -SHRA SCT020CB BKN025
  • 231255Z AUTO 25008KT 200V300 9999 BKN031 BKN037 OVC043 19/12 Q1015 BLU TEMPO 4500 -SHRA SCT020CB BKN025
  • 231225Z AUTO 25010KT 190V320 9999 FEW035 OVC086 20/11 Q1015 BLU TEMPO 4500 -SHRA SCT020CB BKN025
  • 231155Z AUTO 23008KT 180V290 9999 SCT033 SCT042 BKN054 20/11 Q1015 BLU TEMPO 4500 -SHRA SCT020CB BKN025
  • 231125Z AUTO 23010KT 170V270 9999 FEW038 SCT043 20/12 Q1015 BLU TEMPO 4500 -SHRA SCT020CB BKN025
  • 231055Z AUTO 22009KT 210V290 9999 FEW030 BKN036 OVC041 18/11 Q1015 BLU TEMPO 4500 -SHRA SCT020CB BKN025

TAF TAF EHEH
Valido dal 23 a 12 ore il 24 a 18 ore UTC


231153Z 2312/2418 23010KT 9999 SCT025 BKN035
TEMPO 2312/2320 4000 SHRA SCT020CB BKN025
PROB30
TEMPO 2314/2319 VRB12G25KT 2500 TSRAGR SCT018CB BKN025
BECMG 2317/2319 VRB02KT
TEMPO 2321/2406 3500 BR MIFG
PROB30
TEMPO 2400/2405 1500 BCFG
BECMG 2408/2411 33005KT
TEMPO 2408/2418 4500 SHRA SCT010 BKN020 SCT025CB
PROB40
TEMPO 2409/2418 2500 TSRAGR SCT010 BKN018 SCT020CB



MetMap, La meteo Aeronautica in un colpo d'occhio ! - Copyright ORBIFLY Dicembre 2007 - Disclaimer

ORBIFLY MET'MAP TEAM :

Programmazione e sviluppo : Alexandra Zaïnal
Concezione : Baudouin d'Aumeries
Supporto tecnico e logistico : Manuel Goepfert
Aiuto : Marc-Olivier Méhu
Aiuto per la traduzione : Arnaldo La Scala




FONTI E CREDITI :

   NOAA